Currituck, NC

3:19 AM EST on November 18, 2019 (GMT -0500)
Currituck

Weather History for KONX - October, 2019

Change the Weather History Date:

Monday, October 14, 2019

  Actual Average (WUND) Record (WUND)
Temperature  
Mean Temperature 67 °F -  
Max Temperature 91 °F - - (-1)
Min Temperature 59 °F - - (-1)
Cooling Degree Days 2    
Growing Degree Days 17 (Base 50)    
Moisture  
Dew Point 65 °F    
Average Humidity 93    
Maximum Humidity 100    
Minimum Humidity 67    
Precipitation  
Precipitation 0.12 in - - ()
Sea Level Pressure  
Sea Level Pressure 30.02 in    
Wind  
Wind Speed 6 mph ()    
Max Wind Speed 12 mph    
Max Gust Speed 16 mph    
Visibility 8.6 miles    
Events Fog , Rain    
Averages and records for this station are not official NWS values.
T = Trace of Precipitation, MM = Missing Value Source: Averaged Metar Reports

Daily Weather History Graph

Daily Weather History Graph

Search for Another Location

Airport or City:

Astronomy

Oct. 14, 2019 Rise Set
Actual Time 7:10 AM EDT 6:29 PM EDT
Civil Twilight 6:44 AM EDT 6:55 PM EDT
Nautical Twilight 6:14 AM EDT 7:25 PM EDT
Astronomical Twilight 5:44 AM EDT 7:55 PM EDT
Moon 7:18 PM EDT (10/14) 7:40 AM EDT (10/14)
Length of Visible Light 12h 11m
Length of Day
11h 19m
Waxing Gibbous, 99% of the Moon is Illuminated
Oct 14
Waxing Gibbous
Oct 21
Last Quarter
Oct 27
New
Nov 4
First Quarter
Nov 12
Full

Hourly Weather History & Observations

Time (EDT) Temp. Dew Point Humidity Pressure Visibility Wind Dir Wind Speed Gust Speed Precip Events Conditions
12:15 AM 68.5 °F 68.0 °F 98% 30.01 in 7.0 mi SSW 8.1 mph - 0.03 in Rain Rain
12:35 AM 68.2 °F 67.5 °F 98% 30.01 in 7.0 mi SSW 8.1 mph - 0.07 in Rain Rain
12:55 AM 68.0 °F 67.6 °F 99% 29.99 in 5.0 mi South 6.9 mph - 0.11 in Rain Rain
1:15 AM 68.0 °F 68.0 °F 100% 29.98 in 10.0 mi South 10.4 mph 16.1 mph N/A Rain Light Rain
1:55 AM 67.8 °F 67.1 °F 98% 29.98 in 10.0 mi South 8.1 mph - N/A   Overcast
2:15 AM 67.8 °F 67.1 °F 98% 29.98 in 10.0 mi South 8.1 mph - 0.01 in   Mostly Cloudy
2:35 AM 67.8 °F 67.1 °F 98% 29.98 in 10.0 mi SSW 5.8 mph - 0.01 in   Light Drizzle
2:55 AM 67.6 °F 67.1 °F 98% 29.98 in 10.0 mi SSW 5.8 mph - 0.01 in   Mostly Cloudy
3:15 AM 68.0 °F 67.5 °F 98% 29.95 in 10.0 mi South 6.9 mph - N/A   Overcast
3:35 AM 68.2 °F 68.0 °F 99% 29.95 in 10.0 mi South 6.9 mph - N/A   Light Drizzle
3:55 AM 68.7 °F 68.2 °F 98% 29.96 in 10.0 mi SSW 9.2 mph - N/A   Overcast
4:15 AM 68.9 °F 68.2 °F 98% 29.95 in 10.0 mi SSW 10.4 mph - N/A   Overcast
4:35 AM 68.7 °F 68.0 °F 98% 29.95 in 10.0 mi SW 8.1 mph - N/A   Overcast
4:55 AM 68.5 °F 68.0 °F 98% 29.95 in 10.0 mi SSW 5.8 mph - N/A   Overcast
5:15 AM 68.5 °F 68.0 °F 98% 29.98 in 10.0 mi SW 8.1 mph - N/A   Overcast
5:35 AM 68.2 °F 68.0 °F 99% 29.98 in 10.0 mi SW 8.1 mph - N/A   Overcast
5:55 AM 67.8 °F 67.3 °F 98% 29.98 in 10.0 mi WSW 6.9 mph - N/A   Overcast
6:15 AM 67.6 °F 67.5 °F 99% 30.00 in 10.0 mi SW 8.1 mph - N/A   Overcast
6:35 AM 67.5 °F 67.3 °F 99% 30.00 in 10.0 mi WSW 6.9 mph - N/A   Overcast
6:55 AM 67.3 °F 66.7 °F 98% 30.01 in 10.0 mi WSW 9.2 mph - N/A   Overcast
7:15 AM 66.9 °F 66.2 °F 98% 30.01 in 10.0 mi SW 8.1 mph - N/A   Overcast
7:35 AM 66.7 °F 66.2 °F 98% 30.02 in 10.0 mi WSW 6.9 mph - N/A   Overcast
7:55 AM 66.7 °F 66.2 °F 98% 30.02 in 10.0 mi SW 9.2 mph - N/A   Overcast
8:15 AM 66.9 °F 66.2 °F 98% 30.03 in 10.0 mi SW 10.4 mph - N/A   Overcast
8:35 AM 67.1 °F 66.4 °F 98% 30.04 in 10.0 mi SW 9.2 mph - N/A   Overcast
8:55 AM 67.1 °F 66.4 °F 98% 30.04 in 10.0 mi SW 6.9 mph - N/A   Overcast
9:15 AM 67.1 °F 66.2 °F 97% 30.05 in 10.0 mi SW 9.2 mph - N/A   Overcast
9:35 AM 67.1 °F 66.2 °F 97% 30.05 in 10.0 mi SW 5.8 mph - N/A   Overcast
9:55 AM 67.3 °F 66.2 °F 96% 30.05 in 10.0 mi WSW 5.8 mph - N/A   Overcast
10:15 AM 67.8 °F 66.4 °F 95% 30.05 in 10.0 mi West 5.8 mph - N/A   Overcast
10:35 AM 68.5 °F 66.6 °F 93% 30.05 in 10.0 mi West 6.9 mph - N/A   Overcast
10:55 AM 68.7 °F 66.0 °F 91% 30.05 in 10.0 mi West 8.1 mph - N/A   Overcast
11:15 AM 68.9 °F 66.0 °F 90% 30.05 in 10.0 mi WSW 5.8 mph - N/A   Overcast
11:35 AM 69.3 °F 66.0 °F 89% 30.05 in 10.0 mi WSW 3.5 mph - N/A   Overcast
11:55 AM 69.4 °F 65.8 °F 88% 30.04 in 10.0 mi Calm Calm - N/A   Overcast
12:15 PM 69.8 °F 65.8 °F 87% 30.04 in 10.0 mi WSW 3.5 mph - N/A   Overcast
12:35 PM 70.5 °F 66.0 °F 86% 30.03 in 10.0 mi WSW 3.5 mph - N/A   Overcast
12:55 PM 72.0 °F 66.2 °F 82% 30.03 in 10.0 mi WSW 5.8 mph - N/A   Overcast
1:15 PM 73.2 °F 66.2 °F 79% 30.03 in 10.0 mi West 11.5 mph - N/A   Mostly Cloudy
1:35 PM 74.5 °F 65.5 °F 73% 30.02 in 10.0 mi West 4.6 mph - N/A   Mostly Cloudy
1:55 PM 74.8 °F 64.8 °F 71% 30.01 in 10.0 mi WSW 4.6 mph - N/A   Mostly Cloudy
2:15 PM 73.9 °F 63.1 °F 69% 30.00 in 10.0 mi Calm Calm - N/A   Scattered Clouds
2:35 PM 74.8 °F 63.7 °F 68% 30.00 in 10.0 mi WSW 3.5 mph - N/A   Scattered Clouds
2:55 PM 75.2 °F 63.7 °F 67% 30.00 in 10.0 mi SW 6.9 mph - N/A   Mostly Cloudy
3:15 PM 75.4 °F 64.0 °F 68% 30.00 in 10.0 mi ENE 6.9 mph - N/A   Mostly Cloudy
3:35 PM 72.3 °F 65.8 °F 80% 30.00 in 10.0 mi NNE 10.4 mph - N/A   Overcast
3:55 PM 70.0 °F 65.7 °F 86% 30.00 in 10.0 mi NE 6.9 mph - N/A   Mostly Cloudy
4:15 PM 70.2 °F 66.0 °F 87% 30.00 in 10.0 mi NE 6.9 mph - N/A   Scattered Clouds
4:35 PM 70.0 °F 65.8 °F 87% 30.00 in 10.0 mi ENE 6.9 mph - N/A   Scattered Clouds
4:55 PM 70.0 °F 65.8 °F 87% 30.00 in 10.0 mi ENE 5.8 mph - N/A   Scattered Clouds
5:15 PM 69.6 °F 65.7 °F 87% 30.01 in 10.0 mi ENE 3.5 mph - N/A   Scattered Clouds
5:35 PM 69.3 °F 65.7 °F 88% 30.01 in 10.0 mi East 4.6 mph - N/A   Mostly Cloudy
5:55 PM 68.7 °F 65.5 °F 89% 30.02 in 10.0 mi Calm Calm - N/A   Scattered Clouds
6:15 PM 68.2 °F 65.3 °F 90% 30.02 in 10.0 mi Calm Calm - N/A   Scattered Clouds
6:35 PM 67.3 °F 65.3 °F 93% 30.02 in 10.0 mi Calm Calm - N/A   Clear
6:55 PM 66.7 °F 65.5 °F 96% 30.03 in 10.0 mi Calm Calm - N/A   Clear
7:15 PM 66.2 °F 65.5 °F 98% 30.03 in 10.0 mi Calm Calm - N/A   Clear
7:35 PM 65.7 °F 65.5 °F 99% 30.04 in 7.0 mi Calm Calm - N/A   Clear
7:55 PM 64.9 °F 64.9 °F 100% 30.04 in 10.0 mi Calm Calm - N/A   Clear
8:15 PM 64.2 °F 64.2 °F 100% 30.04 in 7.0 mi Calm Calm - N/A   Clear
8:35 PM 63.5 °F 63.5 °F 100% 30.04 in 7.0 mi Calm Calm - N/A   Clear
8:55 PM 63.1 °F 63.1 °F 100% 30.05 in 3.0 mi Calm Calm - N/A   Clear
9:15 PM 62.8 °F 62.8 °F 100% 30.05 in 5.0 mi Calm Calm - N/A   Clear
9:35 PM 62.1 °F 62.1 °F 100% 30.06 in 7.0 mi Calm Calm - N/A   Clear
9:55 PM 61.5 °F 61.5 °F 100% 30.06 in 5.0 mi Calm Calm - N/A   Scattered Clouds
10:15 PM 60.6 °F 60.6 °F 100% 30.07 in 0.5 mi Calm Calm - N/A Fog Fog
10:35 PM 60.4 °F 60.4 °F 100% 30.08 in 0.8 mi Calm Calm - N/A   Overcast
10:55 PM 59.9 °F 59.9 °F 100% 30.08 in 0.2 mi Calm Calm - N/A Fog Fog
11:15 PM 59.2 °F 59.2 °F 100% 30.08 in 0.2 mi Calm Calm - N/A Fog Fog
11:35 PM 59.4 °F 59.4 °F 100% 30.08 in 0.2 mi Calm Calm - N/A Fog Fog
11:55 PM 59.4 °F 59.4 °F 100% 30.08 in 0.2 mi Calm Calm - N/A Fog Fog